Hovedside
METAR-TAF:

METAR-TAF

Lufthavner :

Såtenäs, Sverige

breddegrad: 58-26N, lengdegrad: 012-42E, høyde over havet: 54 m

Gjeldene værobservasjon

Denne rapporten ble laget for 23 minutter siden, klokken 07:20 UTC
Vind 13 kt fra Øst-sørøst
Temperatur 4°C
Luftfuktighet 87%
Trykk 1023 hPa
Sikt 10 km eller mer
Brutte skyer i en høyde av 3100 ft

METAR: ESIB 240720Z 12013KT 9999 BKN031 04/02 Q1023

Tid: 09:43 (07:43 UTC)

Varsel

Denne rapporten ble laget for 2 timer og 53 minutter siden, klokken 04:50 UTC
Varsel gyldig fra 24. klokken 05 UTC til 24. klokken 14 UTC
Vind 10 kt fra Øst-sørøst med vindkast opp mot 20 kt
Sikt 10 km eller mer
ingen skyer under 1500 m og ingen bygeskyer
Midlertidig
fra 24. klokken 05 UTC til 24. klokken 14 UTC
Brutte skyer i en høyde av 2500 ft
lett regn

TAF: ESIB 240450Z 2405/2414 11010G20KT CAVOK TEMPO 2405/2414 -RA BKN025 RMK MIL

Værobservasjoner og værvarsel for over 4000 flyplasser (METAR- og TAF-rapporter).

Tilgjengelige stasjoner er representert av de røde og gule prikkene på kartet.

Hold musepekeren over prikken for å se navnet på stasjonen.

Klikk så for å se værobservasjoner og -varsler.

For å forandre kartet kan du klikke på den grønne knappen med svart kryss for å zoome inn, på den grønne knappen med strek for å zoome ut, eller på de grønne pilene for å se tilstøtende kart.


METAR-TAF: